Terminal Aerodrome Forecast
Issued by NWS Sioux Falls, SD

Home | Current Version | Previous Version | Text Only | Print | Product List | Glossary On
Versions: 1 2 3 4 5 6 7 8 9 10 11 12 13
000
FTUS43 KFSD 120523
TAFFSD
TAF
KFSD 120523Z 1206/1306 01005KT P6SM SCT030 OVC050
     FM121200 33007KT P6SM OVC050
     FM121600 32006KT P6SM SCT030 SCT100
     FM130300 VRB03KT P6SM SKC=

USA.gov is the U.S. government's official web portal to all federal, state and local government web resources and services.